Погода Артёмна 2 недели

Апшеронский район, Азербайджан

26 мая-08 июня
  • 26мая
    Сегодня
    +16°
    +24°
    Облачно с прояснениями, небольшой дождь
    ВремяПогодаТемператураВлажностьДавлениеВетер, м/сВероятность осадков
    01:00Облачно с прояснениями+17°C77 %764 мм2.5 м/с7 %
    04:00Небольшая облачность+17°C78 %764 мм1.9 м/с4 %
    07:00Практически безоблачно+18°C68 %763 мм3.7 м/с2 %
    10:00Небольшая облачность+21°C69 %763 мм5.8 м/с3 %
    13:00Облачно с прояснениями, небольшой дождь+23°C74 %762 мм4.6 м/с19 %
    16:00Практически безоблачно+23°C66 %761 мм4.3 м/с14 %
    19:00Практически безоблачно+20°C73 %760 мм3.8 м/с6 %
    22:00Небольшая облачность+18°C77 %760 мм1.5 м/с25 %
  • 27мая
    Понедельник
    +16°
    +23°
    Ясно и безоблачно
    ВремяПогодаТемператураВлажностьДавлениеВетер, м/сВероятность осадков
    01:00Ясно и безоблачно+17°C84 %759 мм1.4 м/с6 %
    04:00Ясно и безоблачно+16°C84 %760 мм1.9 м/с2 %
    07:00Ясно и безоблачно+17°C82 %761 мм5.6 м/с2 %
    10:00Ясно и безоблачно+20°C80 %762 мм8.4 м/с2 %
    13:00Ясно и безоблачно+22°C76 %762 мм8.5 м/с2 %
    16:00Ясно и безоблачно+21°C76 %763 мм7.6 м/с2 %
    19:00Ясно и безоблачно+19°C80 %763 мм7.4 м/с2 %
    22:00Ясно и безоблачно+17°C81 %764 мм5.9 м/с2 %
  • 28мая
    Вторник
    +15°
    +25°
    Ясно и безоблачно
    ВремяПогодаТемператураВлажностьДавлениеВетер, м/сВероятность осадков
    01:00Ясно и безоблачно+16°C81 %763 мм5.8 м/с2 %
    04:00Ясно и безоблачно+16°C82 %763 мм5.5 м/с2 %
    07:00Ясно и безоблачно+17°C81 %763 мм4.1 м/с2 %
    10:00Ясно и безоблачно+21°C78 %764 мм5.4 м/с2 %
    13:00Ясно и безоблачно+25°C78 %763 мм4.7 м/с2 %
    16:00Ясно и безоблачно+24°C70 %762 мм3.9 м/с2 %
    19:00Ясно и безоблачно+22°C73 %762 мм3.6 м/с2 %
    22:00Ясно и безоблачно+19°C82 %762 мм1.3 м/с2 %
  • 29мая
    Среда
    +17°
    +26°
    Облачно с прояснениями
    ВремяПогодаТемператураВлажностьДавлениеВетер, м/сВероятность осадков
    01:00Ясно и безоблачно+18°C85 %762 мм0.4 м/с2 %
    04:00Практически безоблачно+16°C89 %761 мм0.0 м/с2 %
    07:00Облачно с прояснениями+19°C85 %761 мм1.3 м/с2 %
    10:00Облачно с прояснениями+24°C67 %761 мм5.1 м/с2 %
    13:00Облачно с прояснениями+25°C64 %760 мм6.5 м/с2 %
    16:00Ясно и безоблачно+25°C66 %759 мм6.8 м/с2 %
    19:00Ясно и безоблачно+23°C76 %759 мм6.1 м/с2 %
    22:00Ясно и безоблачно+20°C81 %760 мм3.0 м/с2 %
  • 30мая
    Четверг
    +18°
    +30°
    Ясно и безоблачно
    ВремяПогодаТемператураВлажностьДавлениеВетер, м/сВероятность осадков
    01:00Ясно и безоблачно+19°C90 %759 мм1.4 м/с2 %
    04:00Ясно и безоблачно+18°C93 %759 мм0.5 м/с2 %
    07:00Ясно и безоблачно+19°C91 %760 мм0.9 м/с2 %
    10:00Ясно и безоблачно+26°C71 %760 мм2.7 м/с2 %
    13:00Ясно и безоблачно+29°C56 %759 мм4.5 м/с2 %
    16:00Ясно и безоблачно+29°C57 %759 мм5.1 м/с2 %
    19:00Практически безоблачно+26°C65 %758 мм3.7 м/с2 %
    22:00Облачно с прояснениями+22°C73 %759 мм1.3 м/с2 %
Мы используем cookies
Соглашаюсь